createdAt,value
2018-07-23T00:02:18.470Z,20.00
2018-07-23T00:04:49.329Z,20.00
2018-07-23T00:07:20.204Z,19.90
2018-07-23T00:09:50.989Z,19.90
2018-07-23T00:12:21.878Z,19.80
2018-07-23T00:14:52.793Z,19.70
2018-07-23T00:17:23.668Z,19.70
2018-07-23T00:19:54.405Z,19.70
2018-07-23T00:22:25.273Z,19.60
2018-07-23T00:24:56.135Z,19.60
2018-07-23T00:27:27.017Z,19.50
2018-07-23T00:29:58.014Z,19.50
2018-07-23T00:32:28.818Z,19.40
2018-07-23T00:34:59.777Z,19.30
2018-07-23T00:37:30.709Z,19.20
2018-07-23T00:40:01.770Z,19.00
2018-07-23T00:42:32.689Z,18.90
2018-07-23T00:45:03.607Z,18.70
2018-07-23T00:47:34.431Z,18.60
2018-07-23T00:50:05.520Z,18.60
2018-07-23T00:52:36.858Z,18.50
2018-07-23T00:55:07.702Z,18.40
2018-07-23T00:57:38.575Z,18.40
2018-07-23T01:00:09.448Z,18.40
2018-07-23T01:02:40.310Z,18.40
2018-07-23T01:05:11.192Z,18.50
2018-07-23T01:07:42.129Z,18.40
2018-07-23T01:10:13.074Z,18.40
2018-07-23T01:12:43.970Z,18.40
2018-07-23T01:15:14.905Z,18.40
2018-07-23T01:17:45.804Z,18.50
2018-07-23T01:22:47.281Z,18.50
2018-07-23T01:25:18.414Z,18.60
2018-07-23T01:27:49.293Z,18.60
2018-07-23T01:30:20.212Z,18.50
2018-07-23T01:32:51.132Z,18.40
2018-07-23T01:35:22.066Z,18.40
2018-07-23T01:37:53.000Z,18.30
2018-07-23T01:40:24.121Z,18.20
2018-07-23T01:42:55.163Z,18.20
2018-07-23T01:45:26.335Z,18.10
2018-07-23T01:47:57.246Z,18.00
2018-07-23T01:50:28.265Z,17.90
2018-07-23T01:52:59.092Z,17.90
2018-07-23T01:55:29.918Z,17.80
2018-07-23T01:58:00.858Z,17.80
2018-07-23T02:00:31.664Z,17.80
2018-07-23T02:03:02.609Z,17.80
2018-07-23T02:05:33.492Z,17.80
2018-07-23T02:08:04.436Z,17.80
2018-07-23T02:10:35.173Z,17.70
2018-07-23T02:13:06.244Z,17.70
2018-07-23T02:15:37.058Z,17.70
2018-07-23T02:18:08.059Z,17.70
2018-07-23T02:20:38.752Z,17.60
2018-07-23T02:23:09.735Z,17.60
2018-07-23T02:25:40.621Z,17.60
2018-07-23T02:28:11.551Z,17.60
2018-07-23T02:30:42.289Z,17.60
2018-07-23T02:33:13.071Z,17.60
2018-07-23T02:35:43.821Z,17.70
2018-07-23T02:38:14.658Z,17.60
2018-07-23T02:40:45.421Z,17.50
2018-07-23T02:43:16.229Z,17.50
2018-07-23T02:45:46.937Z,17.50
2018-07-23T02:48:17.812Z,17.50
2018-07-23T02:50:48.456Z,17.50
2018-07-23T02:53:19.245Z,17.50
2018-07-23T02:55:50.119Z,17.50
2018-07-23T02:58:20.936Z,17.50
2018-07-23T03:00:52.110Z,17.50
2018-07-23T03:03:22.929Z,17.50
2018-07-23T03:05:53.849Z,17.40
2018-07-23T03:08:24.548Z,17.30
2018-07-23T03:10:55.396Z,17.30
2018-07-23T03:13:26.272Z,17.30
2018-07-23T03:15:57.337Z,17.30
2018-07-23T03:18:28.140Z,17.20
2018-07-23T03:20:58.863Z,17.20
2018-07-23T03:23:29.772Z,17.10
2018-07-23T03:26:00.691Z,17.00
2018-07-23T03:28:31.776Z,17.00
2018-07-23T03:31:02.708Z,17.00
2018-07-23T03:33:33.501Z,17.00
2018-07-23T03:36:04.441Z,17.00
2018-07-23T03:38:35.205Z,17.00
2018-07-23T03:41:05.952Z,17.20
2018-07-23T03:43:36.756Z,17.20
2018-07-23T03:46:07.562Z,17.30
2018-07-23T03:48:38.336Z,17.30
2018-07-23T03:51:09.600Z,17.30
2018-07-23T03:53:40.438Z,17.30
2018-07-23T03:56:11.447Z,17.20
2018-07-23T03:58:42.411Z,17.30
2018-07-23T04:01:13.300Z,17.40
2018-07-23T04:03:44.397Z,17.50
2018-07-23T04:06:15.195Z,17.60
2018-07-23T04:08:46.173Z,17.60
2018-07-23T04:11:17.020Z,17.70
2018-07-23T04:13:47.821Z,17.80
2018-07-23T04:16:18.694Z,17.80
2018-07-23T04:18:49.546Z,17.90
2018-07-23T04:21:20.367Z,18.10
2018-07-23T04:23:51.476Z,18.20
2018-07-23T04:26:22.486Z,18.30
2018-07-23T04:35:21.407Z,18.80
2018-07-23T04:37:52.373Z,18.90
2018-07-23T04:40:23.474Z,19.00
2018-07-23T04:42:54.715Z,19.20
2018-07-23T04:45:25.706Z,19.30
2018-07-23T04:47:56.647Z,19.40
2018-07-23T04:50:27.714Z,19.60
2018-07-23T04:52:58.892Z,19.90
2018-07-23T04:55:29.902Z,20.00
2018-07-23T04:58:01.029Z,20.20
2018-07-23T05:00:32.299Z,20.40
2018-07-23T05:03:03.418Z,20.60
2018-07-23T05:05:34.361Z,20.70
2018-07-23T05:08:05.303Z,20.90
2018-07-23T05:10:36.395Z,21.10
2018-07-23T05:13:07.585Z,21.20
2018-07-23T05:15:38.595Z,21.40
2018-07-23T05:18:09.613Z,21.50
2018-07-23T05:20:40.658Z,21.60
2018-07-23T05:23:11.612Z,21.70
2018-07-23T05:25:42.722Z,21.80
2018-07-23T05:30:44.264Z,22.00
2018-07-23T05:33:15.756Z,22.10
2018-07-23T05:35:46.743Z,22.20
2018-07-23T05:38:17.802Z,22.30
2018-07-23T05:40:48.846Z,22.50
2018-07-23T05:43:19.897Z,22.50
2018-07-23T05:45:50.820Z,22.70
2018-07-23T05:48:21.895Z,22.80
2018-07-23T05:50:52.987Z,22.90
2018-07-23T05:53:24.952Z,23.00
2018-07-23T05:55:55.845Z,23.10
2018-07-23T05:58:26.807Z,23.30
2018-07-23T06:00:57.848Z,23.40
2018-07-23T06:03:29.008Z,23.50
2018-07-23T06:06:00.088Z,23.60
2018-07-23T06:08:31.082Z,23.70
2018-07-23T06:11:02.074Z,23.90
2018-07-23T06:13:33.384Z,24.10
2018-07-23T06:16:04.387Z,24.40
2018-07-23T06:18:35.311Z,24.60
2018-07-23T06:21:06.372Z,24.80
2018-07-23T06:23:37.639Z,24.90
2018-07-23T06:26:09.037Z,25.00
2018-07-23T06:28:40.065Z,25.00
2018-07-23T06:31:10.936Z,25.10
2018-07-23T06:33:41.910Z,25.20
2018-07-23T06:36:13.029Z,25.30
2018-07-23T06:38:44.109Z,25.40
2018-07-23T06:41:15.053Z,25.40
2018-07-23T06:43:45.968Z,25.30
2018-07-23T06:46:16.992Z,25.30
2018-07-23T06:48:47.835Z,25.40
2018-07-23T06:51:18.977Z,25.40
2018-07-23T06:53:49.868Z,25.40
2018-07-23T06:58:51.252Z,25.40
2018-07-23T07:01:22.430Z,25.50
2018-07-23T07:03:53.456Z,25.60
2018-07-23T07:06:24.601Z,25.50
2018-07-23T07:08:55.851Z,25.50
2018-07-23T07:11:26.858Z,25.60
2018-07-23T07:13:57.834Z,25.60
2018-07-23T07:16:28.774Z,25.60
2018-07-23T07:18:59.713Z,25.70
2018-07-23T07:21:30.672Z,25.70
2018-07-23T07:24:01.640Z,25.80
2018-07-23T07:26:32.450Z,25.90
2018-07-23T07:29:03.425Z,26.00
2018-07-23T07:31:34.408Z,26.10
2018-07-23T07:34:05.377Z,26.20
2018-07-23T07:36:36.445Z,26.20
2018-07-23T07:39:11.927Z,26.30
2018-07-23T07:41:43.141Z,26.50
2018-07-23T07:44:14.251Z,26.60
2018-07-23T07:46:45.150Z,26.70
2018-07-23T07:49:16.112Z,26.60
2018-07-23T07:51:46.977Z,26.70
2018-07-23T07:54:18.052Z,26.80
2018-07-23T07:56:48.968Z,26.80
2018-07-23T07:59:19.970Z,26.90
2018-07-23T08:01:50.963Z,27.00
2018-07-23T08:04:21.984Z,27.00
2018-07-23T08:06:52.847Z,27.20
2018-07-23T08:09:23.831Z,27.30
2018-07-23T08:11:54.819Z,27.40
2018-07-23T08:14:25.775Z,27.50
2018-07-23T08:16:56.773Z,27.60
2018-07-23T08:21:58.315Z,27.80
2018-07-23T08:24:29.369Z,28.00
2018-07-23T08:27:00.449Z,28.00
2018-07-23T08:29:32.223Z,28.00
2018-07-23T08:32:03.565Z,28.00
2018-07-23T08:34:34.486Z,28.10
2018-07-23T08:37:05.579Z,28.20
2018-07-23T08:39:36.637Z,28.20
2018-07-23T08:42:07.695Z,28.20
2018-07-23T08:44:38.840Z,28.30
2018-07-23T08:47:09.912Z,28.40
2018-07-23T08:49:41.013Z,28.40
2018-07-23T08:52:11.973Z,28.40
2018-07-23T08:54:43.134Z,28.50
2018-07-23T08:57:14.015Z,28.60
2018-07-23T08:59:45.311Z,28.70
2018-07-23T09:02:16.446Z,28.70
2018-07-23T09:04:47.484Z,28.60
2018-07-23T09:07:18.601Z,28.70
2018-07-23T09:09:49.749Z,28.70
2018-07-23T09:12:20.813Z,28.70
2018-07-23T09:14:51.871Z,28.90
2018-07-23T09:17:23.038Z,28.90
2018-07-23T09:19:54.267Z,28.90
2018-07-23T09:22:25.506Z,29.00
2018-07-23T09:24:56.620Z,29.20
2018-07-23T09:27:27.589Z,29.30
2018-07-23T09:29:58.471Z,29.50
2018-07-23T09:32:29.449Z,29.40
2018-07-23T09:35:00.347Z,29.10
2018-07-23T09:37:31.248Z,28.70
2018-07-23T09:40:02.337Z,28.30
2018-07-23T09:42:33.318Z,28.00
2018-07-23T09:45:04.329Z,27.70
2018-07-23T09:47:35.158Z,27.40
2018-07-23T09:50:06.222Z,27.20
2018-07-23T09:55:07.680Z,26.80
2018-07-23T09:57:38.511Z,26.70
2018-07-23T10:00:09.415Z,26.60
2018-07-23T10:02:40.354Z,26.40
2018-07-23T10:05:11.405Z,26.30
2018-07-23T10:07:42.268Z,26.20
2018-07-23T10:10:13.223Z,26.00
2018-07-23T10:12:44.145Z,26.00
2018-07-23T10:15:15.268Z,25.70
2018-07-23T10:17:46.166Z,24.90
2018-07-23T10:20:17.167Z,24.30
2018-07-23T10:22:48.086Z,23.90
2018-07-23T10:25:19.080Z,23.70
2018-07-23T10:27:50.061Z,23.50
2018-07-23T10:30:21.034Z,23.40
2018-07-23T10:32:51.997Z,23.30
2018-07-23T10:35:23.104Z,23.30
2018-07-23T10:37:54.057Z,23.30
2018-07-23T10:40:25.610Z,23.20
2018-07-23T10:42:56.831Z,22.90
2018-07-23T10:45:27.843Z,22.60
2018-07-23T10:47:58.804Z,22.40
2018-07-23T10:50:29.795Z,21.90
2018-07-23T10:53:00.680Z,21.30
2018-07-23T10:55:31.533Z,20.80
2018-07-23T10:58:02.338Z,20.50
2018-07-23T11:00:33.230Z,19.50
2018-07-23T11:03:04.086Z,19.50
2018-07-23T11:05:35.052Z,19.70
2018-07-23T11:08:06.077Z,20.10
2018-07-23T11:10:37.047Z,20.30
2018-07-23T11:13:08.493Z,20.40
2018-07-23T11:15:39.518Z,20.50
2018-07-23T11:18:10.855Z,20.70
2018-07-23T11:20:41.957Z,21.10
2018-07-23T11:23:12.736Z,21.40
2018-07-23T11:25:43.855Z,21.40
2018-07-23T11:28:14.986Z,21.60
2018-07-23T11:30:46.054Z,21.50
2018-07-23T11:33:17.245Z,21.50
2018-07-23T11:35:48.439Z,21.50
2018-07-23T11:38:19.459Z,21.60
2018-07-23T11:40:50.686Z,21.60
2018-07-23T11:43:22.121Z,21.70
2018-07-23T11:45:53.177Z,21.90
2018-07-23T11:48:24.343Z,22.10
2018-07-23T11:53:25.985Z,22.50
2018-07-23T11:55:57.664Z,22.60
2018-07-23T11:58:28.776Z,22.80
2018-07-23T12:00:59.742Z,22.90
2018-07-23T17:14:30.525Z,21.70
2018-07-23T17:17:03.115Z,21.80
2018-07-23T17:19:35.440Z,21.90
2018-07-23T17:22:07.795Z,21.90
2018-07-23T17:24:39.899Z,21.80
2018-07-23T17:27:12.034Z,21.80
2018-07-23T17:29:44.039Z,21.60
2018-07-23T17:32:16.317Z,21.60
2018-07-23T17:34:48.471Z,21.40
2018-07-23T17:37:20.801Z,21.10
2018-07-23T17:42:26.619Z,20.60
2018-07-23T17:47:29.924Z,20.30
2018-07-23T17:50:02.122Z,20.20
2018-07-23T17:52:34.367Z,20.20
2018-07-23T17:55:06.992Z,20.10
2018-07-23T17:57:38.945Z,20.00
2018-07-23T18:00:11.353Z,20.00
2018-07-23T18:02:43.339Z,20.00
2018-07-23T18:05:16.924Z,20.00
2018-07-23T18:07:48.925Z,20.00
2018-07-23T18:10:20.786Z,20.10
2018-07-23T18:12:53.057Z,20.10
2018-07-23T18:15:25.247Z,20.20
2018-07-23T18:17:58.795Z,20.20
2018-07-23T18:20:31.249Z,20.10
2018-07-23T18:23:04.001Z,20.00
2018-07-23T18:25:36.324Z,19.90
2018-07-23T18:28:08.824Z,19.80
2018-07-23T18:30:40.808Z,19.70
2018-07-23T18:33:13.364Z,19.60
2018-07-23T18:35:45.535Z,19.50
2018-07-23T18:38:17.811Z,19.50
2018-07-23T18:40:49.369Z,19.20
2018-07-23T18:43:22.175Z,19.30
2018-07-23T18:45:54.445Z,19.00
2018-07-23T18:52:09.271Z,18.90
2018-07-23T18:54:42.858Z,18.80
2018-07-23T18:57:16.377Z,18.80
2018-07-23T19:04:54.113Z,18.90
2018-07-23T19:07:26.501Z,18.90
2018-07-23T19:09:59.081Z,18.90
2018-07-23T19:12:30.876Z,18.90
2018-07-23T19:15:03.443Z,19.00
2018-07-23T19:17:36.441Z,19.10
2018-07-23T19:20:08.614Z,19.10
2018-07-23T19:22:42.676Z,19.00
2018-07-23T19:27:49.133Z,18.80
2018-07-23T19:30:23.184Z,18.80
2018-07-23T19:35:30.288Z,18.70
2018-07-23T19:38:03.652Z,18.70
2018-07-23T19:40:37.252Z,18.60
2018-07-23T19:43:10.897Z,18.60
2018-07-23T19:45:44.295Z,18.60
2018-07-23T19:48:16.958Z,18.60
2018-07-23T19:50:50.686Z,18.60
2018-07-23T19:55:57.359Z,18.50
2018-07-23T20:01:02.941Z,18.40
2018-07-23T20:03:36.569Z,18.50
2018-07-23T20:06:10.053Z,18.50
2018-07-23T20:08:43.539Z,18.50
2018-07-23T20:11:16.774Z,18.50
2018-07-23T20:18:55.364Z,18.60
2018-07-23T20:21:29.227Z,18.60
2018-07-23T20:24:02.650Z,18.60
2018-07-23T20:26:36.438Z,18.70
2018-07-23T20:29:10.182Z,18.70
2018-07-23T20:31:44.332Z,18.70
2018-07-23T20:34:17.934Z,18.80
2018-07-23T20:36:52.588Z,18.70
2018-07-23T20:39:26.064Z,18.70
2018-07-23T20:41:59.688Z,18.70
2018-07-23T20:44:33.072Z,18.70
2018-07-23T20:47:06.245Z,18.70
2018-07-23T20:49:39.341Z,18.70
2018-07-23T20:52:12.603Z,18.60
2018-07-23T20:54:51.421Z,18.60
2018-07-23T21:05:01.980Z,18.60
2018-07-23T21:07:34.920Z,18.50
2018-07-23T21:10:08.204Z,18.50
2018-07-23T21:12:41.413Z,18.50
2018-07-23T21:15:14.750Z,18.50
2018-07-23T21:17:47.031Z,18.50
2018-07-23T21:22:52.016Z,18.40
2018-07-23T21:25:24.477Z,18.40
2018-07-23T21:27:56.652Z,18.30
2018-07-23T21:33:00.877Z,18.30
2018-07-23T21:35:32.889Z,18.30
2018-07-23T21:38:04.702Z,18.30
2018-07-23T21:43:08.478Z,18.20
2018-07-23T21:45:40.510Z,18.20
2018-07-23T21:48:12.515Z,18.10
2018-07-23T21:50:44.590Z,18.10
2018-07-23T21:53:16.587Z,18.00
2018-07-23T21:55:48.890Z,18.00
2018-07-23T21:58:20.944Z,18.00
2018-07-23T22:00:52.987Z,17.90
2018-07-23T22:03:24.682Z,17.90
2018-07-23T22:08:27.746Z,17.80
2018-07-23T22:11:00.011Z,17.90
2018-07-23T22:16:03.526Z,17.90
2018-07-23T22:18:35.412Z,17.80
2018-07-23T22:21:07.272Z,17.70
2018-07-23T22:23:39.470Z,17.70
2018-07-23T22:26:11.195Z,17.60
2018-07-23T22:28:44.276Z,17.60
2018-07-23T22:31:16.325Z,17.60
2018-07-23T22:33:48.490Z,17.60
2018-07-23T22:36:20.741Z,17.60
2018-07-23T22:38:53.019Z,17.60
2018-07-23T22:41:25.881Z,17.70
2018-07-23T22:43:58.131Z,17.80
2018-07-23T22:46:30.362Z,17.90
2018-07-23T22:49:02.615Z,17.90
2018-07-23T22:51:35.077Z,18.00
2018-07-23T22:54:07.494Z,18.00
2018-07-23T22:59:10.616Z,18.10
2018-07-23T23:01:43.608Z,18.10
2018-07-23T23:04:15.213Z,18.10
2018-07-23T23:06:47.296Z,18.20
2018-07-23T23:09:18.900Z,18.20
2018-07-23T23:11:51.025Z,18.20
2018-07-23T23:14:22.951Z,18.30
2018-07-23T23:16:54.959Z,18.30
2018-07-23T23:19:27.261Z,18.30
2018-07-23T23:22:00.221Z,18.30
2018-07-23T23:24:32.541Z,18.30
2018-07-23T23:27:04.970Z,18.30
2018-07-23T23:29:36.676Z,18.30
2018-07-23T23:34:39.661Z,18.30
2018-07-23T23:37:11.447Z,18.30
2018-07-23T23:39:43.235Z,18.30
2018-07-23T23:42:15.491Z,18.30
2018-07-23T23:44:47.393Z,18.30
2018-07-23T23:47:19.225Z,18.20
2018-07-23T23:49:51.178Z,18.30
2018-07-23T23:54:55.432Z,18.20
2018-07-23T23:57:27.460Z,18.20
2018-07-23T23:59:59.437Z,18.20
